sensor_id;sensor_type;location;lat;lon;timestamp;pressure;altitude;pressure_sealevel;temperature;humidity
73101;BME280;61288;53.446;-2.266;2023-03-19T00:00:04;100801.88;;;4.51;96.09
73101;BME280;61288;53.446;-2.266;2023-03-19T00:02:35;100791.50;;;4.57;96.26
73101;BME280;61288;53.446;-2.266;2023-03-19T00:05:04;100804.25;;;4.63;95.75
73101;BME280;61288;53.446;-2.266;2023-03-19T00:07:30;100808.47;;;4.69;95.43
73101;BME280;61288;53.446;-2.266;2023-03-19T00:09:55;100817.81;;;4.74;95.32
73101;BME280;61288;53.446;-2.266;2023-03-19T00:12:21;100816.84;;;4.82;93.88
73101;BME280;61288;53.446;-2.266;2023-03-19T00:14:47;100805.66;;;4.86;94.95
73101;BME280;61288;53.446;-2.266;2023-03-19T00:17:13;100805.63;;;4.87;94.52
73101;BME280;61288;53.446;-2.266;2023-03-19T00:19:38;100823.53;;;4.92;95.23
73101;BME280;61288;53.446;-2.266;2023-03-19T00:22:04;100820.94;;;4.94;94.66
73101;BME280;61288;53.446;-2.266;2023-03-19T00:24:32;100830.31;;;4.96;94.57
73101;BME280;61288;53.446;-2.266;2023-03-19T00:26:58;100835.41;;;4.99;94.82
73101;BME280;61288;53.446;-2.266;2023-03-19T00:29:24;100831.09;;;5.01;94.46
73101;BME280;61288;53.446;-2.266;2023-03-19T00:31:49;100827.63;;;5.04;94.26
73101;BME280;61288;53.446;-2.266;2023-03-19T00:34:15;100831.03;;;5.06;94.38
73101;BME280;61288;53.446;-2.266;2023-03-19T00:36:50;100835.28;;;5.07;93.76
73101;BME280;61288;53.446;-2.266;2023-03-19T00:39:16;100842.16;;;5.06;93.83
73101;BME280;61288;53.446;-2.266;2023-03-19T00:41:41;100842.22;;;5.03;93.96
73101;BME280;61288;53.446;-2.266;2023-03-19T00:44:14;100849.97;;;5.00;93.87
73101;BME280;61288;53.446;-2.266;2023-03-19T00:46:42;100850.03;;;4.94;93.53
73101;BME280;61288;53.446;-2.266;2023-03-19T00:49:08;100843.28;;;4.87;93.92
73101;BME280;61288;53.446;-2.266;2023-03-19T00:51:33;100848.53;;;4.81;94.13
73101;BME280;61288;53.446;-2.266;2023-03-19T00:54:02;100844.31;;;4.75;94.47
73101;BME280;61288;53.446;-2.266;2023-03-19T00:56:27;100839.25;;;4.70;94.73
73101;BME280;61288;53.446;-2.266;2023-03-19T00:58:55;100844.50;;;4.62;95.77
73101;BME280;61288;53.446;-2.266;2023-03-19T01:01:20;100854.78;;;4.59;95.69
73101;BME280;61288;53.446;-2.266;2023-03-19T01:03:46;100845.41;;;4.58;95.77
73101;BME280;61288;53.446;-2.266;2023-03-19T01:06:12;100850.53;;;4.57;96.09
73101;BME280;61288;53.446;-2.266;2023-03-19T01:08:40;100853.97;;;4.57;96.62
73101;BME280;61288;53.446;-2.266;2023-03-19T01:11:14;100853.94;;;4.59;96.93
73101;BME280;61288;53.446;-2.266;2023-03-19T01:13:42;100858.19;;;4.61;96.89
73101;BME280;61288;53.446;-2.266;2023-03-19T01:16:08;100858.16;;;4.63;96.82
73101;BME280;61288;53.446;-2.266;2023-03-19T01:18:33;100870.16;;;4.62;96.78
73101;BME280;61288;53.446;-2.266;2023-03-19T01:20:59;100882.13;;;4.65;96.40
73101;BME280;61288;53.446;-2.266;2023-03-19T01:23:25;100876.94;;;4.68;96.75
73101;BME280;61288;53.446;-2.266;2023-03-19T01:25:51;100875.16;;;4.72;96.45
73101;BME280;61288;53.446;-2.266;2023-03-19T01:28:17;100870.84;;;4.74;95.63
73101;BME280;61288;53.446;-2.266;2023-03-19T01:30:43;100875.13;;;4.75;95.89
73101;BME280;61288;53.446;-2.266;2023-03-19T01:33:08;100880.19;;;4.78;95.67
73101;BME280;61288;53.446;-2.266;2023-03-19T01:35:34;100876.75;;;4.79;96.18
73101;BME280;61288;53.446;-2.266;2023-03-19T01:37:59;100886.16;;;4.83;95.82
73101;BME280;61288;53.446;-2.266;2023-03-19T01:40:24;100884.41;;;4.84;95.87
73101;BME280;61288;53.446;-2.266;2023-03-19T01:43:12;100869.00;;;4.85;95.40
73101;BME280;61288;53.446;-2.266;2023-03-19T01:45:39;100874.97;;;4.87;95.85
73101;BME280;61288;53.446;-2.266;2023-03-19T01:48:15;100868.91;;;4.90;95.86
73101;BME280;61288;53.446;-2.266;2023-03-19T01:50:43;100877.50;;;4.89;95.49
73101;BME280;61288;53.446;-2.266;2023-03-19T01:53:11;100867.22;;;4.89;95.15
73101;BME280;61288;53.446;-2.266;2023-03-19T01:55:38;100878.34;;;4.89;95.56
73101;BME280;61288;53.446;-2.266;2023-03-19T01:58:09;100878.34;;;4.89;95.53
73101;BME280;61288;53.446;-2.266;2023-03-19T02:00:36;100865.53;;;4.89;94.83
73101;BME280;61288;53.446;-2.266;2023-03-19T02:03:04;100870.66;;;4.89;94.65
73101;BME280;61288;53.446;-2.266;2023-03-19T02:05:30;100874.06;;;4.90;95.06
73101;BME280;61288;53.446;-2.266;2023-03-19T02:07:59;100876.63;;;4.91;94.71
73101;BME280;61288;53.446;-2.266;2023-03-19T02:10:27;100874.88;;;4.92;95.44
73101;BME280;61288;53.446;-2.266;2023-03-19T02:12:53;100885.16;;;4.92;95.02
73101;BME280;61288;53.446;-2.266;2023-03-19T02:15:19;100887.72;;;4.94;94.75
73101;BME280;61288;53.446;-2.266;2023-03-19T02:17:45;100880.00;;;4.94;94.66
73101;BME280;61288;53.446;-2.266;2023-03-19T02:20:39;100880.84;;;4.94;94.31
73101;BME280;61288;53.446;-2.266;2023-03-19T02:23:58;100876.53;;;4.96;94.12
73101;BME280;61288;53.446;-2.266;2023-03-19T02:26:28;100882.53;;;4.97;93.04
73101;BME280;61288;53.446;-2.266;2023-03-19T02:28:55;100890.22;;;4.98;92.79
73101;BME280;61288;53.446;-2.266;2023-03-19T02:31:21;100880.78;;;4.99;92.38
73101;BME280;61288;53.446;-2.266;2023-03-19T02:34:04;100887.63;;;5.00;92.01
73101;BME280;61288;53.446;-2.266;2023-03-19T02:36:52;100887.59;;;5.01;91.77
73101;BME280;61288;53.446;-2.266;2023-03-19T02:39:24;100891.88;;;5.01;91.56
73101;BME280;61288;53.446;-2.266;2023-03-19T02:41:53;100891.06;;;5.00;92.02
73101;BME280;61288;53.446;-2.266;2023-03-19T02:44:21;100885.91;;;5.00;92.36
73101;BME280;61288;53.446;-2.266;2023-03-19T02:46:46;100891.88;;;5.01;91.82
73101;BME280;61288;53.446;-2.266;2023-03-19T02:49:12;100895.31;;;5.01;92.00
73101;BME280;61288;53.446;-2.266;2023-03-19T02:51:37;100895.31;;;5.00;92.29
73101;BME280;61288;53.446;-2.266;2023-03-19T02:54:03;100891.06;;;5.00;91.74
73101;BME280;61288;53.446;-2.266;2023-03-19T02:56:30;100893.59;;;5.02;91.76
73101;BME280;61288;53.446;-2.266;2023-03-19T02:58:55;100899.59;;;5.02;92.78
73101;BME280;61288;53.446;-2.266;2023-03-19T03:01:21;100897.88;;;5.00;92.44
73101;BME280;61288;53.446;-2.266;2023-03-19T03:03:47;100913.31;;;5.00;93.38
73101;BME280;61288;53.446;-2.266;2023-03-19T03:06:12;100906.50;;;4.97;93.53
73101;BME280;61288;53.446;-2.266;2023-03-19T03:08:38;100921.03;;;4.97;93.96
73101;BME280;61288;53.446;-2.266;2023-03-19T03:11:04;100922.78;;;4.95;93.89
73101;BME280;61288;53.446;-2.266;2023-03-19T03:13:30;100928.75;;;4.95;94.51
73101;BME280;61288;53.446;-2.266;2023-03-19T03:15:56;100923.63;;;4.95;94.98
73101;BME280;61288;53.446;-2.266;2023-03-19T03:18:21;100932.19;;;4.94;95.04
73101;BME280;61288;53.446;-2.266;2023-03-19T03:20:50;100936.50;;;4.94;95.73
73101;BME280;61288;53.446;-2.266;2023-03-19T03:23:16;100939.13;;;4.90;95.71
73101;BME280;61288;53.446;-2.266;2023-03-19T03:25:42;100936.53;;;4.90;95.90
73101;BME280;61288;53.446;-2.266;2023-03-19T03:28:07;100939.13;;;4.89;96.28
73101;BME280;61288;53.446;-2.266;2023-03-19T03:30:35;100944.28;;;4.87;96.39
73101;BME280;61288;53.446;-2.266;2023-03-19T03:33:02;100940.00;;;4.88;96.86
73101;BME280;61288;53.446;-2.266;2023-03-19T03:35:27;100952.81;;;4.88;97.05
73101;BME280;61288;53.446;-2.266;2023-03-19T03:37:53;100952.00;;;4.87;96.78
73101;BME280;61288;53.446;-2.266;2023-03-19T03:40:18;100954.56;;;4.87;96.39
73101;BME280;61288;53.446;-2.266;2023-03-19T03:42:44;100949.38;;;4.89;96.80
73101;BME280;61288;53.446;-2.266;2023-03-19T03:45:10;100946.81;;;4.89;97.37
73101;BME280;61288;53.446;-2.266;2023-03-19T03:47:36;100949.38;;;4.89;97.62
73101;BME280;61288;53.446;-2.266;2023-03-19T03:50:02;100957.97;;;4.89;97.22
73101;BME280;61288;53.446;-2.266;2023-03-19T03:52:30;100961.34;;;4.90;97.61
73101;BME280;61288;53.446;-2.266;2023-03-19T03:55:00;100961.34;;;4.90;97.87
73101;BME280;61288;53.446;-2.266;2023-03-19T03:57:26;100968.19;;;4.91;98.39
73101;BME280;61288;53.446;-2.266;2023-03-19T03:59:52;100964.75;;;4.92;98.79
73101;BME280;61288;53.446;-2.266;2023-03-19T04:02:18;100966.44;;;4.93;98.60
73101;BME280;61288;53.446;-2.266;2023-03-19T04:04:46;100969.03;;;4.93;98.65
73101;BME280;61288;53.446;-2.266;2023-03-19T04:07:11;100971.59;;;4.93;98.26
73101;BME280;61288;53.446;-2.266;2023-03-19T04:09:37;100972.44;;;4.94;97.86
73101;BME280;61288;53.446;-2.266;2023-03-19T04:12:02;100969.88;;;4.94;97.92
73101;BME280;61288;53.446;-2.266;2023-03-19T04:14:28;100977.59;;;4.94;98.35
73101;BME280;61288;53.446;-2.266;2023-03-19T04:16:54;100975.88;;;4.93;98.67
73101;BME280;61288;53.446;-2.266;2023-03-19T04:19:19;100977.59;;;4.92;99.58
73101;BME280;61288;53.446;-2.266;2023-03-19T04:21:45;100970.78;;;4.89;100.00
73101;BME280;61288;53.446;-2.266;2023-03-19T04:24:11;100981.06;;;4.89;100.00
73101;BME280;61288;53.446;-2.266;2023-03-19T04:26:37;100978.50;;;4.88;100.00
73101;BME280;61288;53.446;-2.266;2023-03-19T04:29:03;100976.84;;;4.85;100.00
73101;BME280;61288;53.446;-2.266;2023-03-19T04:31:29;100985.41;;;4.83;100.00
73101;BME280;61288;53.446;-2.266;2023-03-19T04:33:55;100986.28;;;4.83;100.00
73101;BME280;61288;53.446;-2.266;2023-03-19T04:36:21;100983.72;;;4.83;100.00
73101;BME280;61288;53.446;-2.266;2023-03-19T04:38:48;100988.84;;;4.83;100.00
73101;BME280;61288;53.446;-2.266;2023-03-19T04:41:14;101000.81;;;4.83;100.00
73101;BME280;61288;53.446;-2.266;2023-03-19T04:43:42;100997.41;;;4.82;100.00
73101;BME280;61288;53.446;-2.266;2023-03-19T04:46:08;101001.69;;;4.83;100.00
73101;BME280;61288;53.446;-2.266;2023-03-19T04:48:34;101002.53;;;4.85;100.00
73101;BME280;61288;53.446;-2.266;2023-03-19T04:51:03;101006.78;;;4.86;100.00
73101;BME280;61288;53.446;-2.266;2023-03-19T04:53:34;101016.19;;;4.87;100.00
73101;BME280;61288;53.446;-2.266;2023-03-19T04:56:00;101012.75;;;4.88;100.00
73101;BME280;61288;53.446;-2.266;2023-03-19T04:58:26;101008.47;;;4.87;100.00
73101;BME280;61288;53.446;-2.266;2023-03-19T05:00:53;101008.47;;;4.87;100.00
73101;BME280;61288;53.446;-2.266;2023-03-19T05:03:19;101007.63;;;4.88;100.00
73101;BME280;61288;53.446;-2.266;2023-03-19T05:05:46;101019.59;;;4.88;100.00
73101;BME280;61288;53.446;-2.266;2023-03-19T05:08:11;101017.03;;;4.89;100.00
73101;BME280;61288;53.446;-2.266;2023-03-19T05:10:38;101018.72;;;4.90;100.00
73101;BME280;61288;53.446;-2.266;2023-03-19T05:13:04;101020.44;;;4.88;100.00
73101;BME280;61288;53.446;-2.266;2023-03-19T05:15:31;101014.44;;;4.88;100.00
73101;BME280;61288;53.446;-2.266;2023-03-19T05:17:56;101022.16;;;4.89;100.00
73101;BME280;61288;53.446;-2.266;2023-03-19T05:20:22;101028.13;;;4.90;100.00
73101;BME280;61288;53.446;-2.266;2023-03-19T05:22:48;101024.72;;;4.89;100.00
73101;BME280;61288;53.446;-2.266;2023-03-19T05:25:16;101035.00;;;4.89;100.00
73101;BME280;61288;53.446;-2.266;2023-03-19T05:27:42;101034.13;;;4.90;100.00
73101;BME280;61288;53.446;-2.266;2023-03-19T05:33:07;101040.09;;;4.91;100.00
73101;BME280;61288;53.446;-2.266;2023-03-19T05:35:32;101038.34;;;4.93;100.00
73101;BME280;61288;53.446;-2.266;2023-03-19T05:37:59;101042.66;;;4.93;100.00
73101;BME280;61288;53.446;-2.266;2023-03-19T05:40:25;101045.19;;;4.94;100.00
73101;BME280;61288;53.446;-2.266;2023-03-19T05:42:50;101040.06;;;4.94;100.00
73101;BME280;61288;53.446;-2.266;2023-03-19T05:45:16;101041.78;;;4.94;100.00
73101;BME280;61288;53.446;-2.266;2023-03-19T05:47:42;101040.91;;;4.93;100.00
73101;BME280;61288;53.446;-2.266;2023-03-19T05:50:09;101040.91;;;4.93;100.00
73101;BME280;61288;53.446;-2.266;2023-03-19T05:52:36;101046.94;;;4.94;100.00
73101;BME280;61288;53.446;-2.266;2023-03-19T05:55:02;101056.34;;;4.95;100.00
73101;BME280;61288;53.446;-2.266;2023-03-19T05:57:29;101057.16;;;4.95;100.00
73101;BME280;61288;53.446;-2.266;2023-03-19T05:59:54;101057.16;;;4.95;100.00
73101;BME280;61288;53.446;-2.266;2023-03-19T06:02:20;101064.00;;;4.96;100.00
73101;BME280;61288;53.446;-2.266;2023-03-19T06:04:46;101064.00;;;4.96;100.00
73101;BME280;61288;53.446;-2.266;2023-03-19T06:07:11;101067.44;;;4.97;100.00
73101;BME280;61288;53.446;-2.266;2023-03-19T06:09:37;101077.72;;;4.97;100.00
73101;BME280;61288;53.446;-2.266;2023-03-19T06:12:03;101083.66;;;4.99;100.00
73101;BME280;61288;53.446;-2.266;2023-03-19T06:14:29;101088.81;;;4.99;100.00
73101;BME280;61288;53.446;-2.266;2023-03-19T06:16:55;101085.38;;;5.00;100.00
73101;BME280;61288;53.446;-2.266;2023-03-19T06:19:20;101087.94;;;5.01;100.00
73101;BME280;61288;53.446;-2.266;2023-03-19T06:21:46;101091.34;;;5.02;100.00
73101;BME280;61288;53.446;-2.266;2023-03-19T06:24:11;101095.63;;;5.01;100.00
73101;BME280;61288;53.446;-2.266;2023-03-19T06:26:37;101089.63;;;5.02;100.00
73101;BME280;61288;53.446;-2.266;2023-03-19T06:29:02;101094.75;;;5.04;100.00
73101;BME280;61288;53.446;-2.266;2023-03-19T06:31:28;101091.34;;;5.03;100.00
73101;BME280;61288;53.446;-2.266;2023-03-19T06:33:54;101105.00;;;5.05;100.00
73101;BME280;61288;53.446;-2.266;2023-03-19T06:36:20;101100.72;;;5.06;100.00
73101;BME280;61288;53.446;-2.266;2023-03-19T06:38:46;101104.09;;;5.08;100.00
73101;BME280;61288;53.446;-2.266;2023-03-19T06:41:11;101103.25;;;5.11;100.00
73101;BME280;61288;53.446;-2.266;2023-03-19T06:43:37;101104.09;;;5.10;100.00
73101;BME280;61288;53.446;-2.266;2023-03-19T06:46:05;101106.69;;;5.10;100.00
73101;BME280;61288;53.446;-2.266;2023-03-19T06:48:34;101111.78;;;5.13;100.00
73101;BME280;61288;53.446;-2.266;2023-03-19T06:50:59;101118.63;;;5.14;100.00
73101;BME280;61288;53.446;-2.266;2023-03-19T06:53:26;101123.75;;;5.15;100.00
73101;BME280;61288;53.446;-2.266;2023-03-19T06:55:52;101124.59;;;5.16;100.00
73101;BME280;61288;53.446;-2.266;2023-03-19T06:58:18;101126.28;;;5.18;100.00
73101;BME280;61288;53.446;-2.266;2023-03-19T07:00:43;101126.25;;;5.20;100.00
73101;BME280;61288;53.446;-2.266;2023-03-19T07:03:09;101123.63;;;5.23;100.00
73101;BME280;61288;53.446;-2.266;2023-03-19T07:05:35;101122.75;;;5.26;100.00
73101;BME280;61288;53.446;-2.266;2023-03-19T07:08:00;101124.44;;;5.30;100.00
73101;BME280;61288;53.446;-2.266;2023-03-19T07:10:26;101126.09;;;5.35;100.00
73101;BME280;61288;53.446;-2.266;2023-03-19T07:12:52;101125.19;;;5.40;100.00
73101;BME280;61288;53.446;-2.266;2023-03-19T07:15:18;101125.09;;;5.44;100.00
73101;BME280;61288;53.446;-2.266;2023-03-19T07:17:46;101133.63;;;5.49;100.00
73101;BME280;61288;53.446;-2.266;2023-03-19T07:20:12;101134.38;;;5.58;100.00
73101;BME280;61288;53.446;-2.266;2023-03-19T07:22:37;101131.72;;;5.62;100.00
73101;BME280;61288;53.446;-2.266;2023-03-19T07:25:03;101138.53;;;5.68;100.00
73101;BME280;61288;53.446;-2.266;2023-03-19T07:27:28;101149.66;;;5.69;100.00
73101;BME280;61288;53.446;-2.266;2023-03-19T07:29:54;101153.91;;;5.71;100.00
73101;BME280;61288;53.446;-2.266;2023-03-19T07:32:20;101152.16;;;5.73;100.00
73101;BME280;61288;53.446;-2.266;2023-03-19T07:34:48;101163.31;;;5.74;99.88
73101;BME280;61288;53.446;-2.266;2023-03-19T07:37:14;101174.44;;;5.74;99.46
73101;BME280;61288;53.446;-2.266;2023-03-19T07:39:41;101176.13;;;5.75;99.90
73101;BME280;61288;53.446;-2.266;2023-03-19T07:42:06;101175.22;;;5.79;100.00
73101;BME280;61288;53.446;-2.266;2023-03-19T07:44:32;101173.50;;;5.80;99.72
73101;BME280;61288;53.446;-2.266;2023-03-19T07:46:58;101182.06;;;5.84;99.61
73101;BME280;61288;53.446;-2.266;2023-03-19T07:49:23;101182.84;;;5.87;99.42
73101;BME280;61288;53.446;-2.266;2023-03-19T07:51:49;101181.94;;;5.91;99.39
73101;BME280;61288;53.446;-2.266;2023-03-19T07:54:15;101177.56;;;5.98;99.62
73101;BME280;61288;53.446;-2.266;2023-03-19T07:56:41;101177.56;;;6.00;99.43
73101;BME280;61288;53.446;-2.266;2023-03-19T07:59:08;101195.50;;;6.06;99.66
73101;BME280;61288;53.446;-2.266;2023-03-19T08:01:33;101188.63;;;6.06;98.01
73101;BME280;61288;53.446;-2.266;2023-03-19T08:03:59;101191.19;;;6.08;97.74
73101;BME280;61288;53.446;-2.266;2023-03-19T08:06:25;101196.28;;;6.11;97.49
73101;BME280;61288;53.446;-2.266;2023-03-19T08:08:50;101198.81;;;6.13;97.44
73101;BME280;61288;53.446;-2.266;2023-03-19T08:11:16;101210.78;;;6.17;97.39
73101;BME280;61288;53.446;-2.266;2023-03-19T08:13:41;101203.91;;;6.19;96.94
73101;BME280;61288;53.446;-2.266;2023-03-19T08:16:07;101202.94;;;6.25;97.02
73101;BME280;61288;53.446;-2.266;2023-03-19T08:18:34;101212.31;;;6.29;96.58
73101;BME280;61288;53.446;-2.266;2023-03-19T08:21:00;101214.00;;;6.31;96.72
73101;BME280;61288;53.446;-2.266;2023-03-19T08:23:25;101219.16;;;6.31;96.25
73101;BME280;61288;53.446;-2.266;2023-03-19T08:25:51;101219.16;;;6.31;96.11
73101;BME280;61288;53.446;-2.266;2023-03-19T08:28:18;101228.56;;;6.34;95.81
73101;BME280;61288;53.446;-2.266;2023-03-19T08:30:44;101238.00;;;6.33;95.75
73101;BME280;61288;53.446;-2.266;2023-03-19T08:33:10;101243.19;;;6.29;95.31
73101;BME280;61288;53.446;-2.266;2023-03-19T08:35:36;101238.91;;;6.29;95.93
73101;BME280;61288;53.446;-2.266;2023-03-19T08:38:02;101241.44;;;6.32;96.44
73101;BME280;61288;53.446;-2.266;2023-03-19T08:40:27;101233.69;;;6.35;96.39
73101;BME280;61288;53.446;-2.266;2023-03-19T08:42:53;101241.31;;;6.43;96.21
73101;BME280;61288;53.446;-2.266;2023-03-19T08:45:19;101243.00;;;6.43;94.61
73101;BME280;61288;53.446;-2.266;2023-03-19T08:47:45;101248.13;;;6.46;95.42
73101;BME280;61288;53.446;-2.266;2023-03-19T08:50:12;101251.50;;;6.51;95.42
73101;BME280;61288;53.446;-2.266;2023-03-19T08:52:37;101247.97;;;6.57;95.27
73101;BME280;61288;53.446;-2.266;2023-03-19T08:55:03;101247.03;;;6.61;95.03
73101;BME280;61288;53.446;-2.266;2023-03-19T08:57:30;101264.22;;;6.60;93.67
73101;BME280;61288;53.446;-2.266;2023-03-19T08:59:56;101258.28;;;6.55;92.44
73101;BME280;61288;53.446;-2.266;2023-03-19T09:02:22;101259.91;;;6.61;93.57
73101;BME280;61288;53.446;-2.266;2023-03-19T09:04:47;101266.66;;;6.71;93.95
73101;BME280;61288;53.446;-2.266;2023-03-19T09:07:12;101263.03;;;6.83;92.79
73101;BME280;61288;53.446;-2.266;2023-03-19T09:09:41;101268.00;;;6.94;91.91
73101;BME280;61288;53.446;-2.266;2023-03-19T09:12:10;101261.78;;;7.07;92.55
73101;BME280;61288;53.446;-2.266;2023-03-19T09:14:36;101269.31;;;7.18;90.90
73101;BME280;61288;53.446;-2.266;2023-03-19T09:17:03;101267.38;;;7.31;91.31
73101;BME280;61288;53.446;-2.266;2023-03-19T09:19:29;101269.81;;;7.39;89.34
73101;BME280;61288;53.446;-2.266;2023-03-19T09:21:54;101272.25;;;7.48;88.97
73101;BME280;61288;53.446;-2.266;2023-03-19T09:24:20;101275.53;;;7.55;88.40
73101;BME280;61288;53.446;-2.266;2023-03-19T09:26:45;101272.75;;;7.66;88.51
73101;BME280;61288;53.446;-2.266;2023-03-19T09:29:13;101270.97;;;7.70;87.27
73101;BME280;61288;53.446;-2.266;2023-03-19T09:31:38;101282.81;;;7.80;87.17
73101;BME280;61288;53.446;-2.266;2023-03-19T09:34:04;101281.13;;;7.77;85.37
73101;BME280;61288;53.446;-2.266;2023-03-19T09:36:31;101268.06;;;7.87;86.90
73101;BME280;61288;53.446;-2.266;2023-03-19T09:38:57;101273.84;;;8.00;87.10
73101;BME280;61288;53.446;-2.266;2023-03-19T09:44:32;101299.56;;;8.03;83.53
73101;BME280;61288;53.446;-2.266;2023-03-19T09:49:43;101296.06;;;8.05;83.44
73101;BME280;61288;53.446;-2.266;2023-03-19T09:52:33;101290.03;;;8.06;83.87
73101;BME280;61288;53.446;-2.266;2023-03-19T09:55:15;101302.94;;;8.06;82.73
73101;BME280;61288;53.446;-2.266;2023-03-19T09:57:45;101304.03;;;7.94;84.11
73101;BME280;61288;53.446;-2.266;2023-03-19T10:00:22;101299.91;;;7.86;82.55
73101;BME280;61288;53.446;-2.266;2023-03-19T10:03:28;101299.03;;;7.85;81.48
73101;BME280;61288;53.446;-2.266;2023-03-19T10:06:21;101308.50;;;7.86;82.50
73101;BME280;61288;53.446;-2.266;2023-03-19T10:16:30;101331.50;;;7.97;80.36
73101;BME280;61288;53.446;-2.266;2023-03-19T10:19:02;101332.19;;;8.07;81.32
73101;BME280;61288;53.446;-2.266;2023-03-19T10:24:03;101341.16;;;7.87;78.75
73101;BME280;61288;53.446;-2.266;2023-03-19T10:26:33;101343.78;;;7.86;80.01
73101;BME280;61288;53.446;-2.266;2023-03-19T10:29:10;101342.72;;;7.94;80.00
73101;BME280;61288;53.446;-2.266;2023-03-19T10:36:36;101339.94;;;8.07;77.99
73101;BME280;61288;53.446;-2.266;2023-03-19T10:39:03;101350.81;;;8.21;78.13
73101;BME280;61288;53.446;-2.266;2023-03-19T10:44:41;101354.47;;;8.55;75.23
73101;BME280;61288;53.446;-2.266;2023-03-19T10:47:14;101344.03;;;8.60;74.33
73101;BME280;61288;53.446;-2.266;2023-03-19T10:49:41;101353.22;;;8.73;76.47
73101;BME280;61288;53.446;-2.266;2023-03-19T10:52:32;101347.69;;;8.89;74.65
73101;BME280;61288;53.446;-2.266;2023-03-19T10:55:14;101359.16;;;8.77;72.40
73101;BME280;61288;53.446;-2.266;2023-03-19T10:57:42;101348.28;;;8.62;73.24
73101;BME280;61288;53.446;-2.266;2023-03-19T11:00:23;101353.53;;;8.58;73.13
73101;BME280;61288;53.446;-2.266;2023-03-19T11:02:51;101357.72;;;8.65;74.79
73101;BME280;61288;53.446;-2.266;2023-03-19T11:05:28;101352.72;;;8.56;72.37
73101;BME280;61288;53.446;-2.266;2023-03-19T11:08:18;101351.13;;;8.48;73.27
73101;BME280;61288;53.446;-2.266;2023-03-19T11:10:47;101353.53;;;8.58;75.11
73101;BME280;61288;53.446;-2.266;2023-03-19T11:13:22;101357.81;;;8.59;74.20
73101;BME280;61288;53.446;-2.266;2023-03-19T11:15:51;101366.63;;;8.50;71.89
73101;BME280;61288;53.446;-2.266;2023-03-19T11:18:22;101361.47;;;8.48;71.52
73101;BME280;61288;53.446;-2.266;2023-03-19T11:20:55;101356.09;;;8.59;72.21
73101;BME280;61288;53.446;-2.266;2023-03-19T11:23:26;101366.34;;;8.64;71.75
73101;BME280;61288;53.446;-2.266;2023-03-19T11:25:54;101367.22;;;8.63;71.53
73101;BME280;61288;53.446;-2.266;2023-03-19T11:28:22;101361.22;;;8.61;70.90
73101;BME280;61288;53.446;-2.266;2023-03-19T11:31:12;101350.13;;;8.56;70.06
73101;BME280;61288;53.446;-2.266;2023-03-19T11:39:05;101365.41;;;8.66;70.05
73101;BME280;61288;53.446;-2.266;2023-03-19T11:44:32;101363.63;;;8.70;70.76
73101;BME280;61288;53.446;-2.266;2023-03-19T11:47:13;101358.16;;;8.84;70.90
73101;BME280;61288;53.446;-2.266;2023-03-19T11:52:28;101355.75;;;9.13;68.64
73101;BME280;61288;53.446;-2.266;2023-03-19T11:57:47;101362.72;;;9.10;66.52
73101;BME280;61288;53.446;-2.266;2023-03-19T12:00:35;101362.59;;;9.15;70.41
73101;BME280;61288;53.446;-2.266;2023-03-19T12:03:10;101362.31;;;9.26;68.18
73101;BME280;61288;53.446;-2.266;2023-03-19T12:06:01;101354.31;;;9.37;68.98
73101;BME280;61288;53.446;-2.266;2023-03-19T12:08:58;101359.53;;;9.35;68.38
73101;BME280;61288;53.446;-2.266;2023-03-19T12:11:29;101361.00;;;9.46;68.16
73101;BME280;61288;53.446;-2.266;2023-03-19T12:16:52;101366.06;;;9.83;67.47
73101;BME280;61288;53.446;-2.266;2023-03-19T12:19:53;101369.03;;;9.68;65.22
73101;BME280;61288;53.446;-2.266;2023-03-19T12:22:28;101378.84;;;9.57;66.33
73101;BME280;61288;53.446;-2.266;2023-03-19T12:25:03;101380.78;;;9.47;65.91
73101;BME280;61288;53.446;-2.266;2023-03-19T12:27:48;101366.31;;;9.39;65.71
73101;BME280;61288;53.446;-2.266;2023-03-19T12:36:02;101383.28;;;9.51;65.30
73101;BME280;61288;53.446;-2.266;2023-03-19T12:38:43;101378.66;;;9.64;65.28
73101;BME280;61288;53.446;-2.266;2023-03-19T12:41:32;101386.53;;;9.93;66.06
73101;BME280;61288;53.446;-2.266;2023-03-19T12:46:54;101377.72;;;10.32;63.50
73101;BME280;61288;53.446;-2.266;2023-03-19T12:49:29;101381.19;;;10.31;64.13
73101;BME280;61288;53.446;-2.266;2023-03-19T12:54:45;101384.47;;;10.06;64.43
73101;BME280;61288;53.446;-2.266;2023-03-19T12:57:41;101392.50;;;9.95;62.85
73101;BME280;61288;53.446;-2.266;2023-03-19T13:00:15;101389.19;;;9.90;64.23
73101;BME280;61288;53.446;-2.266;2023-03-19T13:05:38;101385.38;;;10.03;64.17
73101;BME280;61288;53.446;-2.266;2023-03-19T13:08:18;101400.91;;;10.03;65.05
73101;BME280;61288;53.446;-2.266;2023-03-19T13:10:46;101397.78;;;9.92;64.58
73101;BME280;61288;53.446;-2.266;2023-03-19T13:13:26;101397.13;;;9.83;63.41
73101;BME280;61288;53.446;-2.266;2023-03-19T13:16:02;101399.00;;;9.78;65.59
73101;BME280;61288;53.446;-2.266;2023-03-19T13:18:37;101395.81;;;9.67;65.31
73101;BME280;61288;53.446;-2.266;2023-03-19T13:21:22;101399.63;;;9.52;67.16
73101;BME280;61288;53.446;-2.266;2023-03-19T13:24:01;101400.03;;;9.36;66.19
73101;BME280;61288;53.446;-2.266;2023-03-19T13:26:29;101398.97;;;9.45;68.50
73101;BME280;61288;53.446;-2.266;2023-03-19T13:29:12;101400.38;;;9.57;69.43
73101;BME280;61288;53.446;-2.266;2023-03-19T13:31:41;101406.72;;;9.45;69.35
73101;BME280;61288;53.446;-2.266;2023-03-19T13:36:53;101396.56;;;9.37;70.75
73101;BME280;61288;53.446;-2.266;2023-03-19T13:39:28;101409.00;;;9.21;69.64
73101;BME280;61288;53.446;-2.266;2023-03-19T13:46:56;101418.69;;;9.13;68.01
73101;BME280;61288;53.446;-2.266;2023-03-19T13:49:34;101420.72;;;8.99;69.48
73101;BME280;61288;53.446;-2.266;2023-03-19T13:54:43;101414.25;;;8.79;71.11
73101;BME280;61288;53.446;-2.266;2023-03-19T13:59:58;101421.19;;;8.33;74.68
73101;BME280;61288;53.446;-2.266;2023-03-19T14:02:46;101429.16;;;8.20;76.20
73101;BME280;61288;53.446;-2.266;2023-03-19T14:07:40;101413.59;;;8.23;76.89
73101;BME280;61288;53.446;-2.266;2023-03-19T14:10:13;101401.44;;;8.30;77.64